createdAt,value
2022-08-23T00:01:24.328Z,24.05
2022-08-23T00:03:52.049Z,23.86
2022-08-23T00:06:19.242Z,23.67
2022-08-23T00:08:48.576Z,23.57
2022-08-23T00:11:32.149Z,23.59
2022-08-23T00:14:03.289Z,23.65
2022-08-23T00:16:29.776Z,23.63
2022-08-23T00:18:56.597Z,23.70
2022-08-23T00:21:23.542Z,23.76
2022-08-23T00:23:50.004Z,23.66
2022-08-23T00:26:17.889Z,23.67
2022-08-23T00:28:44.352Z,23.57
2022-08-23T00:31:10.853Z,23.53
2022-08-23T00:33:37.328Z,23.45
2022-08-23T00:36:03.996Z,23.57
2022-08-23T00:38:33.027Z,23.51
2022-08-23T00:41:01.144Z,23.38
2022-08-23T00:43:49.119Z,23.34
2022-08-23T00:46:46.069Z,23.30
2022-08-23T00:49:15.862Z,23.30
2022-08-23T00:51:53.127Z,23.40
2022-08-23T00:54:21.990Z,23.35
2022-08-23T00:56:49.893Z,23.35
2022-08-23T00:59:16.363Z,23.37
2022-08-23T01:01:44.143Z,23.26
2022-08-23T01:04:12.913Z,23.20
2022-08-23T01:06:54.960Z,23.14
2022-08-23T01:09:22.304Z,23.19
2022-08-23T01:12:01.335Z,23.14
2022-08-23T01:14:31.242Z,23.07
2022-08-23T01:17:30.616Z,23.02
2022-08-23T01:20:01.487Z,23.11
2022-08-23T01:22:57.351Z,23.09
2022-08-23T01:25:26.136Z,23.10
2022-08-23T01:27:52.904Z,23.12
2022-08-23T01:30:23.843Z,23.13
2022-08-23T01:32:56.940Z,23.05
2022-08-23T01:35:31.295Z,22.92
2022-08-23T01:37:57.817Z,22.91
2022-08-23T01:40:24.496Z,22.86
2022-08-23T01:42:51.017Z,22.73
2022-08-23T01:45:17.621Z,22.66
2022-08-23T01:47:44.122Z,22.51
2022-08-23T01:50:12.998Z,22.37
2022-08-23T01:52:47.068Z,22.43
2022-08-23T01:55:14.622Z,22.45
2022-08-23T01:57:43.207Z,22.38
2022-08-23T02:00:13.719Z,22.36
2022-08-23T02:02:41.452Z,22.25
2022-08-23T02:05:09.471Z,22.16
2022-08-23T02:07:36.234Z,22.05
2022-08-23T02:10:02.897Z,21.90
2022-08-23T02:12:29.864Z,21.79
2022-08-23T02:14:56.725Z,21.69
2022-08-23T02:17:23.229Z,21.80
2022-08-23T02:19:50.719Z,21.87
2022-08-23T02:22:17.423Z,21.84
2022-08-23T02:24:46.339Z,21.92
2022-08-23T02:27:15.303Z,21.98
2022-08-23T02:32:15.235Z,21.93
2022-08-23T02:34:43.000Z,21.92
2022-08-23T02:37:11.058Z,21.90
2022-08-23T02:39:38.880Z,21.88
2022-08-23T02:42:06.944Z,21.82
2022-08-23T02:44:34.722Z,21.82
2022-08-23T02:47:02.313Z,21.65
2022-08-23T02:49:29.422Z,21.74
2022-08-23T02:51:56.522Z,21.86
2022-08-23T02:54:23.393Z,21.82
2022-08-23T02:56:49.952Z,21.74
2022-08-23T02:59:16.390Z,21.69
2022-08-23T03:01:43.083Z,21.65
2022-08-23T03:04:10.706Z,21.67
2022-08-23T03:06:38.435Z,21.52
2022-08-23T03:09:07.195Z,21.49
2022-08-23T03:11:34.180Z,21.59
2022-08-23T03:14:01.274Z,21.61
2022-08-23T03:16:28.677Z,21.52
2022-08-23T03:18:55.264Z,21.54
2022-08-23T03:21:22.421Z,21.50
2022-08-23T03:23:49.129Z,21.47
2022-08-23T03:26:16.128Z,21.44
2022-08-23T03:28:44.219Z,21.35
2022-08-23T03:31:11.333Z,21.33
2022-08-23T03:33:38.389Z,21.32
2022-08-23T03:36:07.519Z,21.39
2022-08-23T03:38:34.434Z,21.41
2022-08-23T03:41:01.614Z,21.46
2022-08-23T03:43:28.363Z,21.52
2022-08-23T03:45:54.846Z,21.35
2022-08-23T03:48:21.765Z,21.22
2022-08-23T03:50:48.307Z,21.19
2022-08-23T03:53:14.923Z,21.23
2022-08-23T03:55:43.034Z,21.25
2022-08-23T03:58:11.225Z,21.23
2022-08-23T04:00:38.662Z,21.14
2022-08-23T04:03:05.484Z,20.99
2022-08-23T04:05:32.016Z,20.95
2022-08-23T04:07:58.990Z,20.94
2022-08-23T04:10:25.826Z,20.88
2022-08-23T04:12:54.751Z,20.97
2022-08-23T04:15:21.361Z,20.90
2022-08-23T04:17:47.858Z,20.77
2022-08-23T04:20:14.505Z,20.78
2022-08-23T04:22:41.021Z,20.88
2022-08-23T04:25:32.986Z,20.95
2022-08-23T04:27:54.837Z,20.86
2022-08-23T04:30:21.475Z,20.76
2022-08-23T04:32:48.286Z,20.66
2022-08-23T04:35:15.861Z,20.51
2022-08-23T04:37:42.634Z,20.41
2022-08-23T04:40:29.619Z,20.42
2022-08-23T04:42:56.413Z,20.40
2022-08-23T04:45:23.193Z,20.28
2022-08-23T04:47:49.798Z,20.20
2022-08-23T04:50:16.883Z,20.45
2022-08-23T04:52:43.441Z,20.59
2022-08-23T04:55:10.018Z,20.62
2022-08-23T04:57:36.618Z,20.67
2022-08-23T05:00:04.422Z,20.76
2022-08-23T05:02:30.877Z,20.83
2022-08-23T05:04:57.415Z,20.79
2022-08-23T05:07:31.024Z,20.81
2022-08-23T05:10:13.429Z,20.94
2022-08-23T05:12:40.455Z,21.09
2022-08-23T05:15:08.789Z,20.91
2022-08-23T05:17:36.377Z,20.91
2022-08-23T05:20:05.099Z,20.89
2022-08-23T05:22:38.198Z,20.84
2022-08-23T05:25:05.452Z,20.99
2022-08-23T05:27:31.944Z,21.16
2022-08-23T05:29:58.441Z,21.22
2022-08-23T05:32:25.124Z,21.29
2022-08-23T05:34:51.621Z,21.33
2022-08-23T05:37:18.669Z,21.45
2022-08-23T05:39:45.226Z,21.57
2022-08-23T05:42:14.628Z,21.64
2022-08-23T05:44:41.650Z,21.69
2022-08-23T05:47:12.327Z,21.67
2022-08-23T05:49:39.579Z,21.55
2022-08-23T05:52:08.189Z,21.47
2022-08-23T05:54:35.979Z,21.53
2022-08-23T05:57:02.496Z,21.55
2022-08-23T05:59:29.184Z,21.73
2022-08-23T06:01:56.458Z,21.99
2022-08-23T06:04:23.345Z,22.10
2022-08-23T06:06:49.810Z,22.20
2022-08-23T06:09:18.206Z,22.27
2022-08-23T06:11:46.644Z,22.33
2022-08-23T06:14:14.524Z,22.34
2022-08-23T06:16:44.070Z,22.42
2022-08-23T06:19:11.389Z,22.56
2022-08-23T06:21:38.580Z,22.53
2022-08-23T06:24:07.064Z,22.50
2022-08-23T06:26:36.898Z,22.91
2022-08-23T06:29:07.216Z,23.25
2022-08-23T06:31:49.249Z,23.04
2022-08-23T06:34:23.254Z,23.13
2022-08-23T06:36:52.847Z,23.11
2022-08-23T06:39:21.499Z,22.97
2022-08-23T06:41:51.163Z,22.91
2022-08-23T06:44:18.518Z,22.91
2022-08-23T06:46:47.922Z,22.87
2022-08-23T06:49:14.987Z,22.86
2022-08-23T06:51:46.210Z,23.12
2022-08-23T06:54:14.494Z,23.32
2022-08-23T06:56:42.599Z,23.43
2022-08-23T06:59:09.425Z,23.29
2022-08-23T07:01:47.373Z,23.34
2022-08-23T07:04:20.374Z,23.53
2022-08-23T07:06:47.211Z,23.54
2022-08-23T07:09:13.884Z,23.69
2022-08-23T07:11:41.498Z,23.61
2022-08-23T07:14:11.182Z,23.72
2022-08-23T07:16:42.212Z,23.78
2022-08-23T07:19:09.190Z,23.79
2022-08-23T07:21:36.574Z,23.80
2022-08-23T07:24:03.919Z,23.72
2022-08-23T07:26:31.313Z,23.94
2022-08-23T07:28:58.163Z,24.00
2022-08-23T07:31:28.399Z,24.01
2022-08-23T07:33:58.788Z,24.18
2022-08-23T07:36:28.359Z,24.25
2022-08-23T07:38:56.206Z,24.12
2022-08-23T07:41:24.759Z,24.10
2022-08-23T07:43:51.325Z,24.01
2022-08-23T07:46:18.283Z,23.92
2022-08-23T07:48:53.835Z,23.96
2022-08-23T07:51:20.808Z,24.01
2022-08-23T07:53:47.971Z,24.23
2022-08-23T07:56:16.440Z,24.32
2022-08-23T07:58:43.037Z,24.24
2022-08-23T08:01:12.540Z,24.03
2022-08-23T08:03:39.805Z,24.09
2022-08-23T08:06:12.576Z,24.32
2022-08-23T08:08:41.132Z,24.41
2022-08-23T08:11:09.308Z,24.50
2022-08-23T08:13:38.671Z,24.53
2022-08-23T08:16:05.500Z,24.55
2022-08-23T08:18:32.262Z,24.58
2022-08-23T08:20:58.964Z,24.73
2022-08-23T08:23:25.638Z,24.89
2022-08-23T08:26:06.317Z,24.93
2022-08-23T08:28:33.899Z,24.92
2022-08-23T08:31:00.456Z,24.99
2022-08-23T08:33:30.728Z,25.02
2022-08-23T08:35:59.278Z,25.09
2022-08-23T08:38:30.578Z,25.08
2022-08-23T08:41:03.414Z,25.14
2022-08-23T08:43:58.714Z,25.17
2022-08-23T08:46:47.616Z,25.28
2022-08-23T08:49:31.985Z,25.48
2022-08-23T08:52:10.750Z,25.81
2022-08-23T08:54:38.724Z,26.00
2022-08-23T08:57:08.969Z,25.99
2022-08-23T08:59:51.351Z,25.98
2022-08-23T09:02:32.872Z,26.16
2022-08-23T09:05:08.261Z,26.31
2022-08-23T09:07:47.619Z,26.14
2022-08-23T09:10:20.129Z,26.34
2022-08-23T09:12:59.244Z,26.45
2022-08-23T09:15:36.357Z,26.68
2022-08-23T09:18:15.825Z,26.94
2022-08-23T09:20:44.084Z,27.05
2022-08-23T09:23:27.298Z,27.04
2022-08-23T09:25:59.870Z,27.15
2022-08-23T09:28:33.878Z,27.48
2022-08-23T09:31:00.651Z,27.37
2022-08-23T09:33:45.978Z,27.37
2022-08-23T09:36:15.541Z,27.40
2022-08-23T09:39:01.580Z,27.22
2022-08-23T09:41:43.624Z,27.35
2022-08-23T09:44:16.810Z,27.25
2022-08-23T09:46:43.431Z,27.32
2022-08-23T09:49:28.625Z,27.55
2022-08-23T09:51:58.816Z,27.68
2022-08-23T09:54:30.970Z,27.87
2022-08-23T09:57:04.369Z,27.98
2022-08-23T09:59:34.700Z,27.89
2022-08-23T10:02:02.276Z,27.88
2022-08-23T10:04:29.081Z,27.78
2022-08-23T10:06:56.317Z,27.75
2022-08-23T10:09:32.736Z,27.85
2022-08-23T10:12:02.353Z,27.86
2022-08-23T10:14:31.161Z,27.95
2022-08-23T10:17:00.492Z,28.03
2022-08-23T10:19:44.678Z,28.02
2022-08-23T10:22:53.165Z,28.26
2022-08-23T10:25:24.785Z,28.35
2022-08-23T10:28:39.594Z,28.49
2022-08-23T10:31:12.003Z,28.68
2022-08-23T10:34:02.127Z,28.37
2022-08-23T10:36:38.623Z,28.45
2022-08-23T10:39:19.682Z,28.77
2022-08-23T10:42:31.690Z,28.68
2022-08-23T10:45:16.924Z,29.22
2022-08-23T10:48:04.181Z,29.66
2022-08-23T10:50:42.442Z,29.63
2022-08-23T10:53:15.856Z,29.29
2022-08-23T10:56:02.845Z,28.87
2022-08-23T10:58:58.267Z,28.59
2022-08-23T11:01:34.753Z,28.50
2022-08-23T11:04:06.114Z,28.74
2022-08-23T11:06:35.361Z,28.96
2022-08-23T11:09:21.740Z,29.39
2022-08-23T11:12:11.254Z,29.30
2022-08-23T11:15:03.556Z,29.55
2022-08-23T11:17:43.818Z,29.56
2022-08-23T11:20:12.497Z,29.54
2022-08-23T11:22:57.324Z,29.43
2022-08-23T11:25:23.752Z,29.34
2022-08-23T11:27:50.273Z,29.27
2022-08-23T11:30:34.981Z,29.35
2022-08-23T11:33:16.666Z,29.52
2022-08-23T11:36:09.092Z,29.78
2022-08-23T11:38:47.796Z,29.62
2022-08-23T11:41:20.349Z,29.73
2022-08-23T11:44:10.583Z,30.02
2022-08-23T11:46:48.286Z,30.18
2022-08-23T11:49:20.913Z,30.18
2022-08-23T11:52:02.625Z,30.06
2022-08-23T11:54:55.700Z,29.92
2022-08-23T11:57:43.732Z,29.95
2022-08-23T12:00:29.417Z,30.03
2022-08-23T12:03:17.184Z,29.88
2022-08-23T12:05:52.511Z,30.00
2022-08-23T12:08:23.103Z,29.72
2022-08-23T12:10:51.088Z,29.72
2022-08-23T12:13:20.855Z,29.98
2022-08-23T12:16:17.515Z,30.17
2022-08-23T12:18:47.750Z,30.28
2022-08-23T12:21:26.584Z,30.35
2022-08-23T12:24:13.586Z,30.51
2022-08-23T12:26:42.774Z,30.63
2022-08-23T12:29:09.165Z,30.54
2022-08-23T12:31:43.127Z,30.29
2022-08-23T12:34:32.999Z,30.47
2022-08-23T12:37:12.920Z,30.67
2022-08-23T12:39:50.128Z,30.47
2022-08-23T12:42:24.981Z,30.51
2022-08-23T12:45:12.950Z,30.49
2022-08-23T12:47:43.266Z,30.54
2022-08-23T12:50:15.900Z,30.58
2022-08-23T12:52:42.515Z,30.60
2022-08-23T12:55:19.433Z,30.44
2022-08-23T12:57:55.121Z,30.31
2022-08-23T13:00:33.954Z,30.48
2022-08-23T13:03:13.849Z,30.59
2022-08-23T13:06:08.699Z,30.53
2022-08-23T13:08:39.883Z,30.59
2022-08-23T13:11:08.931Z,30.37
2022-08-23T13:13:38.638Z,30.40
2022-08-23T13:16:41.337Z,30.43
2022-08-23T13:19:19.218Z,30.41
2022-08-23T13:21:45.758Z,30.41
2022-08-23T13:24:37.760Z,30.35
2022-08-23T13:27:27.256Z,30.44
2022-08-23T13:30:09.085Z,30.42
2022-08-23T13:32:45.237Z,30.62
2022-08-23T13:35:32.195Z,30.57
2022-08-23T13:38:08.330Z,30.53
2022-08-23T13:40:59.264Z,30.54
2022-08-23T13:43:31.515Z,30.50
2022-08-23T13:46:09.219Z,30.55
2022-08-23T13:48:37.545Z,30.66
2022-08-23T13:51:40.737Z,30.52
2022-08-23T13:54:10.849Z,30.27
2022-08-23T13:56:42.414Z,30.10
2022-08-23T13:59:22.594Z,30.30
2022-08-23T14:01:52.505Z,30.40
2022-08-23T14:04:19.017Z,30.58
2022-08-23T14:06:48.694Z,30.68
2022-08-23T14:09:16.749Z,30.62
2022-08-23T14:11:43.789Z,30.69
2022-08-23T14:14:12.482Z,30.63
2022-08-23T14:16:40.174Z,30.65
2022-08-23T14:19:16.498Z,30.49
2022-08-23T14:21:46.779Z,30.50
2022-08-23T14:24:13.551Z,30.50
2022-08-23T14:26:51.733Z,30.52
2022-08-23T14:29:22.294Z,30.61
2022-08-23T14:31:50.791Z,30.59
2022-08-23T14:34:17.679Z,30.52
2022-08-23T14:38:00.235Z,30.59
2022-08-23T14:39:31.153Z,30.60
2022-08-23T14:41:58.282Z,30.52
2022-08-23T14:44:28.978Z,30.48
2022-08-23T14:46:56.848Z,30.44
2022-08-23T14:49:23.580Z,30.47
2022-08-23T14:51:51.132Z,30.44
2022-08-23T14:54:22.016Z,30.42
2022-08-23T14:56:51.735Z,30.35
2022-08-23T14:59:18.325Z,30.39
2022-08-23T15:01:47.360Z,30.40
2022-08-23T15:04:18.253Z,30.28
2022-08-23T15:07:06.903Z,30.23
2022-08-23T15:09:32.273Z,30.34
2022-08-23T15:14:46.496Z,30.33
2022-08-23T15:17:13.716Z,30.36
2022-08-23T15:19:40.436Z,30.28
2022-08-23T15:22:18.356Z,30.33
2022-08-23T15:24:47.766Z,30.35
2022-08-23T15:27:14.329Z,30.42
2022-08-23T15:29:40.792Z,30.41
2022-08-23T15:32:07.811Z,30.31
2022-08-23T15:34:36.937Z,30.26
2022-08-23T15:37:06.644Z,30.36
2022-08-23T15:39:33.270Z,30.41
2022-08-23T15:41:59.738Z,30.42
2022-08-23T15:44:26.283Z,30.33
2022-08-23T15:46:54.599Z,30.32
2022-08-23T15:49:23.828Z,30.27
2022-08-23T15:51:50.420Z,30.28
2022-08-23T15:54:16.910Z,30.30
2022-08-23T15:56:48.388Z,30.33
2022-08-23T15:59:18.409Z,30.29
2022-08-23T16:01:45.482Z,30.24
2022-08-23T16:04:12.322Z,30.16
2022-08-23T16:06:40.096Z,30.15
2022-08-23T16:09:12.586Z,30.14
2022-08-23T16:11:43.025Z,30.14
2022-08-23T16:14:09.779Z,30.12
2022-08-23T16:16:40.726Z,30.13
2022-08-23T16:19:09.027Z,30.06
2022-08-23T16:21:36.078Z,30.01
2022-08-23T16:24:02.838Z,30.01
2022-08-23T16:26:34.685Z,30.03
2022-08-23T16:29:03.448Z,30.03
2022-08-23T16:31:38.572Z,30.00
2022-08-23T16:34:09.619Z,29.93
2022-08-23T16:36:36.358Z,29.86
2022-08-23T16:39:04.445Z,29.86
2022-08-23T16:41:31.040Z,29.79
2022-08-23T16:43:57.653Z,29.75
2022-08-23T16:46:24.530Z,29.76
2022-08-23T16:48:51.147Z,29.74
2022-08-23T16:51:18.121Z,29.72
2022-08-23T16:53:44.588Z,29.72
2022-08-23T16:56:22.257Z,29.67
2022-08-23T16:58:48.741Z,29.64
2022-08-23T17:01:19.574Z,29.59
2022-08-23T17:03:46.433Z,29.56
2022-08-23T17:06:13.151Z,29.54
2022-08-23T17:08:39.731Z,29.51
2022-08-23T17:11:09.892Z,29.45
2022-08-23T17:13:36.292Z,29.40
2022-08-23T17:16:03.077Z,29.40
2022-08-23T17:18:29.746Z,29.38
2022-08-23T17:20:56.330Z,29.39
2022-08-23T17:23:25.930Z,29.39
2022-08-23T17:25:52.430Z,29.38
2022-08-23T17:28:19.055Z,29.32
2022-08-23T17:30:45.577Z,29.22
2022-08-23T17:33:12.116Z,29.07
2022-08-23T17:35:39.708Z,29.01
2022-08-23T17:38:07.172Z,28.96
2022-08-23T17:40:38.039Z,28.90
2022-08-23T17:43:06.228Z,28.86
2022-08-23T17:45:43.341Z,28.75
2022-08-23T17:48:11.284Z,28.67
2022-08-23T17:50:39.337Z,28.60
2022-08-23T17:53:06.817Z,28.55
2022-08-23T17:55:34.980Z,28.45
2022-08-23T17:58:03.989Z,28.35
2022-08-23T18:00:32.422Z,28.29
2022-08-23T18:02:59.295Z,28.13
2022-08-23T18:05:27.384Z,28.08
2022-08-23T18:07:53.905Z,28.03
2022-08-23T18:10:20.705Z,27.93
2022-08-23T18:12:47.307Z,27.86
2022-08-23T18:15:13.862Z,27.83
2022-08-23T18:17:40.523Z,27.74
2022-08-23T18:20:10.014Z,27.71
2022-08-23T18:22:37.343Z,27.60
2022-08-23T18:25:05.748Z,27.56
2022-08-23T18:27:50.747Z,27.46
2022-08-23T18:30:17.466Z,27.15
2022-08-23T18:32:44.753Z,26.79
2022-08-23T18:35:11.367Z,26.56
2022-08-23T18:37:37.984Z,26.43
2022-08-23T18:40:09.217Z,26.28
2022-08-23T18:42:36.662Z,26.18
2022-08-23T18:45:04.487Z,26.18
2022-08-23T18:47:30.948Z,26.26
2022-08-23T18:49:57.542Z,26.23
2022-08-23T18:52:24.111Z,26.16
2022-08-23T18:54:50.557Z,26.09
2022-08-23T18:57:17.826Z,26.05
2022-08-23T18:59:44.435Z,25.96
2022-08-23T19:02:11.361Z,25.92
2022-08-23T19:04:37.951Z,25.92
2022-08-23T19:07:05.108Z,25.94
2022-08-23T19:09:31.591Z,25.95
2022-08-23T19:12:00.238Z,25.92
2022-08-23T19:14:28.153Z,25.88
2022-08-23T19:16:55.197Z,25.85
2022-08-23T19:19:22.960Z,25.84
2022-08-23T19:21:50.219Z,25.86
2022-08-23T19:24:17.393Z,25.85
2022-08-23T19:26:47.451Z,25.84
2022-08-23T19:29:14.887Z,25.79
2022-08-23T19:31:47.771Z,25.78
2022-08-23T19:34:16.694Z,25.76
2022-08-23T19:36:47.368Z,25.77
2022-08-23T19:39:17.699Z,25.74
2022-08-23T19:41:44.773Z,25.73
2022-08-23T19:44:11.641Z,25.74
2022-08-23T19:46:42.077Z,25.73
2022-08-23T19:49:09.832Z,25.74
2022-08-23T19:51:36.655Z,25.73
2022-08-23T19:54:04.947Z,25.72
2022-08-23T19:56:50.444Z,25.67
2022-08-23T19:59:21.637Z,25.61
2022-08-23T20:01:49.732Z,25.64
2022-08-23T20:04:17.315Z,25.60
2022-08-23T20:06:43.852Z,25.64
2022-08-23T20:09:10.419Z,25.62
2022-08-23T20:11:37.143Z,25.62
2022-08-23T20:14:05.398Z,25.55
2022-08-23T20:16:32.762Z,25.46
2022-08-23T20:19:00.498Z,25.40
2022-08-23T20:21:27.636Z,25.40
2022-08-23T20:24:06.322Z,25.42
2022-08-23T20:26:34.493Z,25.44
2022-08-23T20:29:03.995Z,25.44
2022-08-23T20:31:35.009Z,25.40
2022-08-23T20:34:02.065Z,25.36
2022-08-23T20:36:29.247Z,25.40
2022-08-23T20:39:00.409Z,25.36
2022-08-23T20:41:29.615Z,25.30
2022-08-23T20:43:56.648Z,25.16
2022-08-23T20:46:23.257Z,25.13
2022-08-23T20:48:51.633Z,25.17
2022-08-23T20:51:19.473Z,25.18
2022-08-23T20:53:46.828Z,25.13
2022-08-23T20:56:13.472Z,25.07
2022-08-23T20:58:40.304Z,25.06
2022-08-23T21:01:09.336Z,25.02
2022-08-23T21:03:38.257Z,24.99
2022-08-23T21:06:20.158Z,24.90
2022-08-23T21:08:53.986Z,24.82
2022-08-23T21:11:21.900Z,24.73
2022-08-23T21:13:48.664Z,24.68
2022-08-23T21:16:16.779Z,24.67
2022-08-23T21:18:43.740Z,24.70
2022-08-23T21:21:10.732Z,24.70
2022-08-23T21:23:37.916Z,24.65
2022-08-23T21:26:05.705Z,24.53
2022-08-23T21:28:32.766Z,24.50
2022-08-23T21:31:12.584Z,24.52
2022-08-23T21:33:40.580Z,24.52
2022-08-23T21:36:08.148Z,24.53
2022-08-23T21:38:34.764Z,24.50
2022-08-23T21:41:05.091Z,24.37
2022-08-23T21:43:32.829Z,24.30
2022-08-23T21:45:59.435Z,24.25
2022-08-23T21:48:26.088Z,24.21
2022-08-23T21:50:54.088Z,24.18
2022-08-23T21:53:20.684Z,24.14
2022-08-23T21:55:47.145Z,24.07
2022-08-23T21:58:13.987Z,24.03
2022-08-23T22:00:41.255Z,24.05
2022-08-23T22:03:09.082Z,24.16
2022-08-23T22:05:40.538Z,23.98
2022-08-23T22:08:07.071Z,23.99
2022-08-23T22:10:36.996Z,23.91
2022-08-23T22:13:05.555Z,23.86
2022-08-23T22:15:33.208Z,23.71
2022-08-23T22:18:00.622Z,23.68
2022-08-23T22:20:28.488Z,23.72
2022-08-23T22:22:55.014Z,23.72
2022-08-23T22:25:21.544Z,23.74
2022-08-23T22:27:48.047Z,23.80
2022-08-23T22:30:15.612Z,23.76
2022-08-23T22:32:42.776Z,23.69
2022-08-23T22:35:11.390Z,23.64
2022-08-23T22:37:49.429Z,23.74
2022-08-23T22:40:25.240Z,23.76
2022-08-23T22:42:51.756Z,23.63
2022-08-23T22:45:19.010Z,23.54
2022-08-23T22:47:45.516Z,23.45
2022-08-23T22:50:12.437Z,23.48
2022-08-23T22:52:40.360Z,23.32
2022-08-23T22:55:07.138Z,23.13
2022-08-23T22:57:33.679Z,22.67
2022-08-23T23:00:05.792Z,22.57
2022-08-23T23:02:37.785Z,22.39
2022-08-23T23:05:05.234Z,22.36
2022-08-23T23:07:50.236Z,22.31
2022-08-23T23:10:16.978Z,22.32
2022-08-23T23:12:43.424Z,22.25
2022-08-23T23:15:10.215Z,22.33
2022-08-23T23:17:36.710Z,22.37
2022-08-23T23:20:23.324Z,22.39
2022-08-23T23:22:51.157Z,22.30
2022-08-23T23:25:17.888Z,22.37
2022-08-23T23:27:45.060Z,22.39
2022-08-23T23:30:11.921Z,22.37
2022-08-23T23:32:38.605Z,22.30
2022-08-23T23:35:07.349Z,22.23
2022-08-23T23:37:33.803Z,22.05
2022-08-23T23:40:00.418Z,22.06
2022-08-23T23:42:27.007Z,22.09
2022-08-23T23:44:53.504Z,21.93
2022-08-23T23:47:20.030Z,22.01
2022-08-23T23:49:47.332Z,21.93
2022-08-23T23:52:13.822Z,21.86
2022-08-23T23:54:41.210Z,21.90
2022-08-23T23:57:08.072Z,21.88
2022-08-23T23:59:35.052Z,21.86
